• Join FlightAware (Why Join?)
  • Login
  • US Flag 
12:33PM EDT


 

Airport Tracker/Info


-or-


 

Live Flight TrackerFlight Track Log ✈ THY1536 ✈ 21-Aug-2013 ✈ EDDL / DUS - LTAF / ADA

Flight Track Log - Related Links

Times and Time Zones

All times are in EDT time to prevent confusion due to time zone crossing. See the THY1536 flight status page for this flight to view local times or setup timezone preferences in your user account.

Time Position Orientation Groundspeed Altitude Reporting Facility
EDT Latitude Longitude Course Direction KTS MPH feet Rate Location/Type
03:49PM 50.9278 8.0188 114° Southeast  Level Estimated
03:50PM 50.8750 8.1961 115° Southeast  Level Estimated
03:51PM 50.8220 8.3730 115° Southeast  Level Estimated
03:52PM 50.7687 8.5494 115° Southeast  Level Estimated
03:53PM 50.7152 8.7255 116° Southeast  Level Estimated
03:54PM 50.6614 8.9011 116° Southeast  Level Estimated
03:55PM 50.6073 9.0764 116° Southeast  Level Estimated
03:56PM 50.5530 9.2512 116° Southeast  Level Estimated
03:57PM 50.4984 9.4257 116° Southeast  Level Estimated
03:58PM 50.4435 9.5997 116° Southeast  Level Estimated
03:59PM 50.3884 9.7734 116° Southeast  Level Estimated
04:00PM 50.3330 9.9466 117° Southeast  Level Estimated
04:01PM 50.2774 10.1194 117° Southeast  Level Estimated
04:02PM 50.2215 10.2918 117° Southeast  Level Estimated
04:03PM 50.1653 10.4639 117° Southeast  Level Estimated
04:04PM 50.1089 10.6355 117° Southeast  Level Estimated
04:05PM 50.0523 10.8067 117° Southeast  Level Estimated
04:06PM 49.9954 10.9775 117° Southeast  Level Estimated
04:07PM 49.9382 11.1479 117° Southeast  Level Estimated
04:08PM 49.8808 11.3179 118° Southeast  Level Estimated
04:09PM 49.8232 11.4875 118° Southeast  Level Estimated
04:10PM 49.7653 11.6567 118° Southeast  Level Estimated
04:11PM 49.7071 11.8255 118° Southeast  Level Estimated
04:12PM 49.6488 11.9938 118° Southeast  Level Estimated
04:13PM 49.5901 12.1618 118° Southeast  Level Estimated
04:14PM 49.5312 12.3294 118° Southeast  Level Estimated
04:15PM 49.4721 12.4965 119° Southeast  Level Estimated
04:16PM 49.4128 12.6633 119° Southeast  Level Estimated
04:17PM 49.3532 12.8297 119° Southeast  Level Estimated
04:18PM 49.2934 12.9956 119° Southeast  Level Estimated
04:19PM 49.2333 13.1612 119° Southeast  Level Estimated
04:20PM 49.1730 13.3263 119° Southeast  Level Estimated
04:21PM 49.1124 13.4911 119° Southeast  Level Estimated
04:22PM 49.0517 13.6554 119° Southeast  Level Estimated
04:23PM 48.9907 13.8194 120° Southeast  Level Estimated
04:24PM 48.9294 13.9829 120° Southeast  Level Estimated
04:25PM 48.8680 14.1460 120° Southeast  Level Estimated
04:26PM 48.8063 14.3088 120° Southeast  Level Estimated
04:27PM 48.7443 14.4711 120° Southeast  Level Estimated
04:28PM 48.6822 14.6331 120° Southeast  Level Estimated
04:29PM 48.6198 14.7946 120° Southeast  Level Estimated
04:30PM 48.5572 14.9557 120° Southeast  Level Estimated
04:31PM 48.4944 15.1165 120° Southeast  Level Estimated
04:32PM 48.4313 15.2768 121° Southeast  Level Estimated
04:33PM 48.3680 15.4368 121° Southeast  Level Estimated
04:34PM 48.3045 15.5963 121° Southeast  Level Estimated
04:35PM 48.2408 15.7555 121° Southeast  Level Estimated
04:36PM 48.1769 15.9142 121° Southeast  Level Estimated
04:37PM 48.1127 16.0725 121° Southeast  Level Estimated
04:38PM 48.0484 16.2305 121° Southeast  Level Estimated
04:39PM 47.9838 16.3881 121° Southeast  Level Estimated
04:40PM 47.9190 16.5452 122° Southeast  Level Estimated
04:41PM 47.8539 16.7020 122° Southeast  Level Estimated
04:42PM 47.7887 16.8584 122° Southeast  Level Estimated
04:43PM 47.7233 17.0144 122° Southeast  Level Estimated
04:44PM 47.6576 17.1700 122° Southeast  Level Estimated
04:45PM 47.5918 17.3252 122° Southeast  Level Estimated
04:46PM 47.5257 17.4800 122° Southeast  Level Estimated
04:47PM 47.4594 17.6344 122° Southeast  Level Estimated
04:48PM 47.3929 17.7885 122° Southeast  Level Estimated
04:49PM 47.3262 17.9421 123° Southeast  Level Estimated
04:50PM 47.2593 18.0954 123° Southeast  Level Estimated
04:51PM 47.1922 18.2482 123° Southeast  Level Estimated
04:52PM 47.1249 18.4007 123° Southeast  Level Estimated
04:53PM 47.0574 18.5528 123° Southeast  Level Estimated
04:54PM 46.9897 18.7045 123° Southeast  Level Estimated
04:55PM 46.9218 18.8559 123° Southeast  Level Estimated
04:56PM 46.8537 19.0068 123° Southeast  Level Estimated
04:57PM 46.7854 19.1574 123° Southeast  Level Estimated
04:58PM 46.7169 19.3076 124° Southeast  Level Estimated
04:59PM 46.6482 19.4574 124° Southeast  Level Estimated
05:00PM 46.5793 19.6068 124° Southeast  Level Estimated
05:01PM 46.5103 19.7558 124° Southeast  Level Estimated
05:02PM 46.4410 19.9045 124° Southeast  Level Estimated
05:03PM 46.3715 20.0528 124° Southeast  Level Estimated
05:04PM 46.3018 20.2007 124° Southeast  Level Estimated
05:05PM 46.2320 20.3482 124° Southeast  Level Estimated
05:06PM 46.1620 20.4953 124° Southeast  Level Estimated
05:07PM 46.0917 20.6421 125° Southeast  Level Estimated
05:08PM 46.0213 20.7885 125° Southeast  Level Estimated
05:09PM 45.9507 20.9345 125° Southeast  Level Estimated
05:10PM 45.8799 21.0802 125° Southeast  Level Estimated
05:11PM 45.8089 21.2255 125° Southeast  Level Estimated
05:12PM 45.7378 21.3704 125° Southeast  Level Estimated
05:13PM 45.6665 21.5150 125° Southeast  Level Estimated
05:14PM 45.5949 21.6591 125° Southeast  Level Estimated
05:15PM 45.5232 21.8030 125° Southeast  Level Estimated
05:16PM 45.4514 21.9464 126° Southeast  Level Estimated
05:17PM 45.3793 22.0895 126° Southeast  Level Estimated
05:18PM 45.3070 22.2322 126° Southeast  Level Estimated
05:19PM 45.2346 22.3746 126° Southeast  Level Estimated
05:20PM 45.1620 22.5166 126° Southeast  Level Estimated
05:21PM 45.0893 22.6582 126° Southeast  Level Estimated
05:22PM 45.0163 22.7994 126° Southeast  Level Estimated
05:23PM 44.9432 22.9404 126° Southeast  Level Estimated
05:24PM 44.8699 23.0809 126° Southeast  Level Estimated
05:25PM 44.7965 23.2211 126° Southeast  Level Estimated
05:26PM 44.7228 23.3609 127° Southeast  Level Estimated
05:27PM 44.6490 23.5004 127° Southeast  Level Estimated
05:28PM 44.5751 23.6395 127° Southeast  Level Estimated
05:29PM 44.5009 23.7783 127° Southeast  Level Estimated
05:30PM 44.4266 23.9167 127° Southeast  Level Estimated
05:31PM 44.3521 24.0548 127° Southeast  Level Estimated
05:32PM 44.2775 24.1925 127° Southeast  Level Estimated
05:33PM 44.2027 24.3298 127° Southeast  Level Estimated
05:34PM 44.1277 24.4669 127° Southeast  Level Estimated
05:35PM 44.0526 24.6035 127° Southeast  Level Estimated
05:36PM 43.9773 24.7398 127° Southeast  Level Estimated
05:37PM 43.9019 24.8758 128° Southeast  Level Estimated
05:38PM 43.8262 25.0114 128° Southeast  Level Estimated
05:39PM 43.7505 25.1467 128° Southeast  Level Estimated
05:40PM 43.6745 25.2817 128° Southeast  Level Estimated
05:41PM 43.5984 25.4163 128° Southeast  Level Estimated
05:42PM 43.5222 25.5505 128° Southeast  Level Estimated
05:43PM 43.4458 25.6845 128° Southeast  Level Estimated
05:44PM 43.3692 25.8180 128° Southeast  Level Estimated
05:45PM 43.2925 25.9513 128° Southeast  Level Estimated
05:46PM 43.2156 26.0842 128° Southeast  Level Estimated
05:47PM 43.1386 26.2168 129° Southeast  Level Estimated
05:48PM 43.0614 26.3490 129° Southeast  Level Estimated
05:49PM 42.9841 26.4809 129° Southeast  Level Estimated
05:50PM 42.9066 26.6125 129° Southeast  Level Estimated
05:51PM 42.8290 26.7438 129° Southeast  Level Estimated
05:52PM 42.7512 26.8747 129° Southeast  Level Estimated
05:53PM 42.6732 27.0053 129° Southeast  Level Estimated
05:54PM 42.5952 27.1355 129° Southeast  Level Estimated
05:55PM 42.5169 27.2655 129° Southeast  Level Estimated
05:56PM 42.4386 27.3951 129° Southeast  Level Estimated
05:57PM 42.3601 27.5243 129° Southeast  Level Estimated
05:58PM 42.2814 27.6533 129° Southeast  Level Estimated
05:59PM 42.2026 27.7819 130° Southeast  Level Estimated
06:00PM 42.1236 27.9103 130° Southeast  Level Estimated
06:01PM 42.0445 28.0383 130° Southeast  Level Estimated
06:02PM 41.9653 28.1660 130° Southeast  Level Estimated
06:03PM 41.8859 28.2933 130° Southeast  Level Estimated
06:04PM 41.8064 28.4204 130° Southeast  Level Estimated
06:05PM 41.7267 28.5471 130° Southeast  Level Estimated
06:06PM 41.6469 28.6735 130° Southeast  Level Estimated
06:07PM 41.5670 28.7996 130° Southeast  Level Estimated
06:08PM 41.4869 28.9254 130° Southeast  Level Estimated
06:09PM 41.4067 29.0509 130° Southeast  Level Estimated
06:10PM 41.3264 29.1761 130° Southeast  Level Estimated
06:11PM 41.2459 29.3009 131° Southeast  Level Estimated
06:12PM 41.1653 29.4255 131° Southeast  Level Estimated
06:13PM 41.0845 29.5497 131° Southeast  Level Estimated
06:14PM 41.0037 29.6737 131° Southeast  Level Estimated
06:15PM 40.9227 29.7973 131° Southeast  Level Estimated
06:16PM 40.8415 29.9206 131° Southeast  Level Estimated
06:17PM 40.7602 30.0437 131° Southeast  Level Estimated
06:18PM 40.6788 30.1664 131° Southeast  Level Estimated
06:19PM 40.5973 30.2889 131° Southeast  Level Estimated
06:20PM 40.5156 30.4110 131° Southeast  Level Estimated
06:21PM 40.4338 30.5328 131° Southeast  Level Estimated
06:22PM 40.3519 30.6544 131° Southeast  Level Estimated
06:23PM 40.2699 30.7756 132° Southeast  Level Estimated
06:24PM 40.1877 30.8966 132° Southeast  Level Estimated
06:25PM 40.1054 31.0172 132° Southeast  Level Estimated
06:26PM 40.0230 31.1376 132° Southeast  Level Estimated
06:27PM 39.9404 31.2577 132° Southeast  Level Estimated
06:28PM 39.8577 31.3775 132° Southeast  Level Estimated
06:29PM 39.7749 31.4970 132° Southeast  Level Estimated
06:30PM 39.6920 31.6162 132° Southeast  Level Estimated
06:31PM 39.6090 31.7351 132° Southeast  Level Estimated
06:32PM 39.5258 31.8538 132° Southeast  Level Estimated
06:33PM 39.4425 31.9721 132° Southeast  Level Estimated
06:34PM 39.3591 32.0902 132° Southeast  Level Estimated
06:35PM 39.2756 32.2080 132° Southeast  Level Estimated
06:36PM 39.1920 32.3255 133° Southeast  Level Estimated
06:37PM 39.1082 32.4427 133° Southeast  Level Estimated
06:38PM 39.0243 32.5597 133° Southeast  Level Estimated
06:39PM 38.9404 32.6763 133° Southeast  Level Estimated
06:40PM 38.8563 32.7928 133° Southeast  Level Estimated
06:41PM 38.7720 32.9089 133° Southeast  Level Estimated
06:42PM 38.6877 33.0247 133° Southeast  Level Estimated
06:43PM 38.6033 33.1403 133° Southeast  Level Estimated
06:44PM 38.5187 33.2556 133° Southeast  Level Estimated
06:45PM 38.4340 33.3707 133° Southeast  Level Estimated
06:46PM 38.3492 33.4854 133° Southeast  Level Estimated
06:47PM 38.2643 33.5999 133° Southeast  Level Estimated
06:48PM 38.1793 33.7142 133° Southeast  Level Estimated
06:49PM 38.0942 33.8281 133° Southeast  Level Estimated
06:50PM 38.0090 33.9418 134° Southeast  Level Estimated
06:51PM 37.9236 34.0552 134° Southeast  Level Estimated
06:52PM 37.8382 34.1684 134° Southeast  Level Estimated
06:53PM 37.7526 34.2813 134° Southeast  Level Estimated
06:54PM 37.6670 34.3940 134° Southeast  Level Estimated
06:55PM 37.5812 34.5064 134° Southeast  Level Estimated
06:56PM 37.4953 34.6185 134° Southeast  Level Estimated
06:57PM 37.4093 34.7304 134° Southeast  Level Estimated
06:58PM 37.3232 34.8420 134° Southeast  Level Estimated
06:59PM 37.2370 34.9533 134° Southeast  Level Estimated
07:00PM 37.1507 35.0644 134° Southeast  Level Estimated
07:01PM 37.0644 35.1753 134° Southeast  Level Estimated
07:02PM 36.9822 35.2804 134° Southeast  Level Estimated
07:03PM 36.9822 35.2804 202° Southwest  Level Estimated
07:04PM 36.9822 35.2804 202° Southwest  Level Estimated
07:05PM 36.9822 35.2804 202° Southwest  Level Estimated
07:06PM 36.9822 35.2804 202° Southwest  Level Estimated
07:07PM 36.9822 35.2804 202° Southwest  Level Estimated
07:08PM 36.9822 35.2804 202° Southwest  Level Estimated
07:09PM 36.9822 35.2804 202° Southwest  Level Estimated
07:10PM 36.9822 35.2804 202° Southwest  Level Estimated
07:11PM 36.9822 35.2804 202° Southwest  Level Estimated
07:12PM 36.9822 35.2804 202° Southwest  Level Estimated
07:13PM 36.9822 35.2804 202° Southwest  Level Estimated
07:14PM 36.9822 35.2804 202° Southwest  Level Estimated
07:15PM 36.9822 35.2804 202° Southwest  Level Estimated
07:16PM 36.9822 35.2804 202° Southwest  Level Estimated
07:17PM 36.9822 35.2804 202° Southwest  Level Estimated
07:18PM 36.9822 35.2804 202° Southwest  Level Estimated